Time;durP1;ratioP1;P1;durP2;ratioP2;P2;SDS_P1;SDS_P2;PMS_P1;PMS_P2;Temp;Humidity;BMP_temperature;BMP_pressure;BME280_temperature;BME280_humidity;BME280_pressure;Samples;Min_cycle;Max_cycle;Signal;HPM_P1;HPM_P2
2022/07/20 00:00:49;;;;;;;16.65;6.90;;;;;;;19.09;81.27;100061.63;4882728;29;20052;-74
2022/07/20 00:03:15;;;;;;;23.77;6.72;;;;;;;19.12;81.44;100067.28;4884875;29;20492;-75
2022/07/20 00:05:42;;;;;;;16.65;7.55;;;;;;;19.13;80.92;100071.69;4884495;29;20116;-75
2022/07/20 00:08:09;;;;;;;19.77;7.60;;;;;;;19.14;80.71;100076.09;4867840;29;20036;-75
2022/07/20 00:13:20;;;;;;;19.33;6.47;;;;;;;19.05;81.53;100077.28;4886739;29;20054;-75
2022/07/20 00:15:46;;;;;;;22.73;7.40;;;;;;;19.06;81.47;100074.16;4850938;29;20056;-75
2022/07/20 00:18:12;;;;;;;23.67;7.80;;;;;;;18.98;81.77;100073.06;4891112;29;20032;-74
2022/07/20 00:20:37;;;;;;;35.40;8.68;;;;;;;18.84;82.82;100077.97;4902259;29;20045;-75
2022/07/20 00:23:03;;;;;;;24.40;6.97;;;;;;;18.66;83.08;100083.53;4853853;29;20100;-76
2022/07/20 00:25:29;;;;;;;29.15;7.70;;;;;;;18.50;84.37;100090.75;4899865;29;20097;-76
2022/07/20 00:27:55;;;;;;;18.45;7.22;;;;;;;18.39;85.24;100094.97;4879703;29;20032;-75
2022/07/20 00:30:21;;;;;;;26.73;7.05;;;;;;;18.30;86.09;100098.56;4898029;29;20024;-77
2022/07/20 00:32:47;;;;;;;24.63;7.38;;;;;;;18.22;86.42;100093.81;4881962;29;20036;-75
2022/07/20 00:35:13;;;;;;;21.05;7.03;;;;;;;18.20;86.25;100104.41;4898185;29;20029;-76
2022/07/20 00:37:40;;;;;;;28.92;8.10;;;;;;;18.21;86.78;100108.00;4884679;29;20029;-75
2022/07/20 00:40:07;;;;;;;20.23;7.53;;;;;;;18.30;86.09;100109.63;4884380;29;20052;-76
2022/07/20 00:42:36;;;;;;;19.52;6.78;;;;;;;18.43;85.54;100123.66;4896043;29;20034;-76
2022/07/20 00:45:07;;;;;;;25.52;8.10;;;;;;;18.48;85.10;100104.09;4882805;29;20051;-76
2022/07/20 00:47:32;;;;;;;19.55;7.03;;;;;;;18.57;84.37;100113.19;4868528;29;20028;-76
2022/07/20 00:49:58;;;;;;;17.33;7.43;;;;;;;18.63;84.64;100117.44;4901007;29;20389;-75
2022/07/20 00:52:24;;;;;;;16.90;7.65;;;;;;;18.70;83.89;100113.34;4883454;29;20029;-77
2022/07/20 00:54:50;;;;;;;26.40;8.45;;;;;;;18.66;83.92;100104.88;4869429;29;20039;-76
2022/07/20 00:57:16;;;;;;;19.58;7.38;;;;;;;18.58;83.75;100087.13;4853183;29;20029;-76
2022/07/20 00:59:42;;;;;;;12.95;6.50;;;;;;;18.59;83.99;100090.72;4875838;29;20028;-76
2022/07/20 01:02:07;;;;;;;22.15;7.55;;;;;;;18.58;83.53;100098.22;4900819;29;20066;-78
2022/07/20 01:04:33;;;;;;;15.23;6.88;;;;;;;18.46;84.23;100096.09;4901879;29;20716;-78
2022/07/20 01:06:58;;;;;;;13.60;6.93;;;;;;;18.41;83.92;100110.13;4898824;29;20025;-75
2022/07/20 01:09:24;;;;;;;18.35;6.78;;;;;;;18.41;84.32;100114.84;4882707;29;20043;-76
2022/07/20 01:11:50;;;;;;;17.02;6.00;;;;;;;18.42;84.58;100131.13;4881511;29;20049;-75
2022/07/20 01:14:15;;;;;;;17.15;7.28;;;;;;;18.46;84.26;100128.53;4878088;29;20125;-76
2022/07/20 01:16:40;;;;;;;17.27;6.32;;;;;;;18.50;84.36;100123.97;4886006;29;20032;-77
2022/07/20 01:19:07;;;;;;;13.65;5.35;;;;;;;18.52;84.03;100120.88;4904807;29;20033;-75
2022/07/20 01:21:33;;;;;;;14.90;5.80;;;;;;;18.54;83.57;100101.97;4872704;29;20029;-76
2022/07/20 01:23:58;;;;;;;15.38;5.65;;;;;;;18.47;83.26;100092.22;4901996;29;20051;-76
2022/07/20 01:26:24;;;;;;;20.40;6.05;;;;;;;18.40;83.42;100102.13;4873315;29;20028;-76
2022/07/20 01:28:49;;;;;;;11.80;5.55;;;;;;;18.24;83.96;100088.78;4889196;29;20071;-76
2022/07/20 01:31:15;;;;;;;19.13;7.35;;;;;;;18.16;84.50;100086.84;4862934;29;20041;-75
2022/07/20 01:33:41;;;;;;;21.83;6.35;;;;;;;18.05;84.94;100080.81;4902021;29;20061;-77
2022/07/20 01:36:07;;;;;;;13.45;5.65;;;;;;;17.93;84.88;100073.16;4895720;29;20043;-76
2022/07/20 01:38:32;;;;;;;14.98;7.03;;;;;;;17.93;85.40;100088.94;4885976;29;20043;-75
2022/07/20 01:40:58;;;;;;;15.75;7.20;;;;;;;17.89;85.02;100094.28;4905725;29;20120;-76
2022/07/20 01:43:23;;;;;;;12.30;5.82;;;;;;;17.86;85.46;100094.09;4884394;29;20051;-75
2022/07/20 01:45:49;;;;;;;13.90;6.88;;;;;;;17.81;85.42;100092.31;4905281;29;20064;-77
2022/07/20 01:48:14;;;;;;;24.45;7.60;;;;;;;17.79;85.80;100089.06;4886486;29;20049;-75
2022/07/20 01:50:40;;;;;;;16.30;6.97;;;;;;;17.76;85.24;100084.19;4879621;29;20029;-78
2022/07/20 01:53:07;;;;;;;13.30;7.45;;;;;;;17.69;85.28;100081.06;4883160;29;20095;-77
2022/07/20 01:55:33;;;;;;;16.58;8.02;;;;;;;17.70;85.30;100091.00;4902301;29;20059;-77
2022/07/20 01:57:58;;;;;;;15.05;7.30;;;;;;;17.68;85.25;100098.78;4871249;29;20480;-77
2022/07/20 02:00:24;;;;;;;14.45;7.40;;;;;;;17.63;85.17;100089.50;4888851;29;20037;-79
2022/07/20 02:02:50;;;;;;;15.07;7.70;;;;;;;17.62;84.98;100096.19;4887333;29;20111;-77
2022/07/20 02:05:16;;;;;;;12.48;7.47;;;;;;;17.58;85.36;100095.19;4887719;29;20032;-77
2022/07/20 02:07:42;;;;;;;14.30;7.88;;;;;;;17.54;84.61;100105.25;4874567;29;20040;-76
2022/07/20 02:10:10;;;;;;;14.23;7.65;;;;;;;17.50;84.85;100095.97;4871422;29;20103;-75
2022/07/20 02:12:36;;;;;;;7.70;5.95;;;;;;;17.49;84.12;100091.56;4905816;29;20075;-73
2022/07/20 02:15:05;;;;;;;10.15;6.43;;;;;;;17.44;84.43;100088.97;4904253;29;20021;-75
2022/07/20 02:17:30;;;;;;;12.32;7.43;;;;;;;17.50;84.50;100095.97;4886217;29;20033;-74
2022/07/20 02:19:55;;;;;;;11.52;7.32;;;;;;;17.44;84.39;100088.97;4900896;29;20080;-74
2022/07/20 02:22:21;;;;;;;17.08;8.10;;;;;;;17.47;84.16;100099.38;4884432;29;20052;-74
2022/07/20 02:24:46;;;;;;;13.32;7.47;;;;;;;17.43;84.57;100090.09;4902613;29;20036;-75
2022/07/20 02:27:12;;;;;;;16.63;7.40;;;;;;;17.39;85.00;100089.94;4866552;29;20056;-74
2022/07/20 02:29:41;;;;;;;19.98;8.57;;;;;;;17.38;84.95;100096.59;4891420;29;20784;-73
2022/07/20 02:32:06;;;;;;;12.93;7.57;;;;;;;17.31;85.22;100098.19;4899474;29;20039;-73
2022/07/20 02:34:32;;;;;;;15.35;8.07;;;;;;;17.32;85.33;100113.63;4884892;29;20036;-74
2022/07/20 02:36:57;;;;;;;14.73;8.02;;;;;;;17.27;85.32;100114.59;4884609;29;20552;-75
2022/07/20 02:39:23;;;;;;;14.65;7.45;;;;;;;17.19;85.38;100099.59;4892403;29;20028;-74
2022/07/20 02:41:48;;;;;;;18.85;8.00;;;;;;;17.18;85.72;100108.22;4868962;29;20040;-74
2022/07/20 02:44:13;;;;;;;17.80;8.07;;;;;;;17.15;85.57;100115.19;4867443;29;20032;-74
2022/07/20 02:46:39;;;;;;;10.55;6.63;;;;;;;17.07;85.15;100110.47;4880675;29;20041;-74
2022/07/20 02:49:07;;;;;;;9.40;5.63;;;;;;;17.00;85.29;100110.09;4883959;29;20044;-74
2022/07/20 02:51:33;;;;;;;13.85;7.72;;;;;;;17.01;85.76;100115.28;4900702;29;20024;-74
2022/07/20 02:53:58;;;;;;;16.88;8.25;;;;;;;16.95;85.66;100112.97;4883865;29;20031;-74
2022/07/20 02:56:24;;;;;;;13.57;8.00;;;;;;;16.95;86.14;100132.31;4883301;29;20051;-74
2022/07/20 02:58:49;;;;;;;13.98;7.60;;;;;;;16.91;86.95;100144.00;4878422;29;20051;-73
2022/07/20 03:01:15;;;;;;;12.98;7.82;;;;;;;16.85;86.50;100152.69;4898813;29;20412;-74
2022/07/20 03:03:40;;;;;;;14.10;7.25;;;;;;;16.80;86.94;100158.34;4884038;29;20037;-72
2022/07/20 03:06:06;;;;;;;14.88;7.28;;;;;;;16.73;87.28;100159.59;4869571;29;20036;-73
2022/07/20 03:08:31;;;;;;;17.50;8.63;;;;;;;16.71;87.60;100177.59;4882946;29;20067;-73
2022/07/20 03:10:57;;;;;;;14.20;7.97;;;;;;;16.65;87.83;100181.63;4866430;29;20082;-72
2022/07/20 03:13:22;;;;;;;18.25;8.18;;;;;;;16.63;88.31;100181.09;4879450;29;20041;-74
2022/07/20 03:15:48;;;;;;;16.88;8.32;;;;;;;16.56;88.47;100173.28;4868260;29;20029;-72
2022/07/20 03:18:14;;;;;;;15.32;8.25;;;;;;;16.53;88.47;100165.63;4894613;29;20480;-73
2022/07/20 03:20:39;;;;;;;14.32;8.32;;;;;;;16.45;88.90;100158.88;4871575;29;20052;-73
2022/07/20 03:23:04;;;;;;;13.93;8.13;;;;;;;16.39;88.80;100152.66;4887007;29;20032;-74
2022/07/20 03:25:31;;;;;;;12.23;7.95;;;;;;;16.33;89.46;100139.31;4897594;29;20059;-75
2022/07/20 03:27:58;;;;;;;13.10;8.30;;;;;;;16.30;89.85;100150.97;4884612;29;20032;-74
2022/07/20 03:30:25;;;;;;;15.10;7.75;;;;;;;16.29;90.32;100154.84;4891951;29;20062;-73
2022/07/20 03:32:50;;;;;;;13.93;8.40;;;;;;;16.25;90.52;100146.38;4868486;29;20724;-75
2022/07/20 03:35:17;;;;;;;18.60;8.43;;;;;;;16.20;90.71;100152.81;4901351;29;20024;-74
2022/07/20 03:37:42;;;;;;;14.73;9.00;;;;;;;16.16;90.80;100149.06;4898763;29;20033;-74
2022/07/20 03:40:09;;;;;;;26.25;9.38;;;;;;;16.12;91.42;100144.47;4867965;29;20444;-75
2022/07/20 03:42:35;;;;;;;18.92;8.50;;;;;;;16.13;91.67;100157.16;4898892;29;20033;-75
2022/07/20 03:45:00;;;;;;;14.95;8.45;;;;;;;16.10;92.40;100158.56;4884584;29;20044;-74
2022/07/20 03:47:26;;;;;;;17.02;8.70;;;;;;;16.07;92.30;100148.16;4874965;29;20040;-74
2022/07/20 03:49:52;;;;;;;23.63;9.23;;;;;;;16.01;93.07;100136.41;4902849;29;20036;-74
2022/07/20 03:52:18;;;;;;;18.80;9.05;;;;;;;16.03;92.61;100159.00;4884958;29;20029;-73
2022/07/20 03:54:43;;;;;;;17.58;8.68;;;;;;;15.99;92.81;100148.88;4884430;29;20028;-74
2022/07/20 03:57:09;;;;;;;18.27;8.90;;;;;;;16.00;93.03;100167.06;4870163;29;20037;-73
2022/07/20 03:59:34;;;;;;;17.58;9.50;;;;;;;15.92;92.85;100165.88;4899117;29;20076;-73
2022/07/20 04:02:00;;;;;;;13.23;8.07;;;;;;;15.93;93.03;100163.91;4854454;29;20037;-74
2022/07/20 04:04:27;;;;;;;20.10;8.80;;;;;;;15.90;92.99;100175.56;4884417;29;20036;-73
2022/07/20 04:06:53;;;;;;;22.25;10.02;;;;;;;15.83;93.25;100160.25;4903420;29;20047;-73
2022/07/20 04:09:43;;;;;;;16.58;8.60;;;;;;;15.87;93.34;100155.75;4897550;29;20039;-73
2022/07/20 04:12:04;;;;;;;12.55;8.63;;;;;;;15.84;93.26;100161.91;4887484;29;20135;-74
2022/07/20 04:14:30;;;;;;;16.95;8.25;;;;;;;15.81;93.04;100159.75;4884002;29;20064;-73
2022/07/20 04:16:55;;;;;;;23.55;9.43;;;;;;;15.80;93.32;100160.88;4882938;29;20047;-74
2022/07/20 04:19:21;;;;;;;19.02;10.52;;;;;;;15.79;93.29;100148.22;4898171;29;20408;-73
2022/07/20 04:21:46;;;;;;;19.02;8.32;;;;;;;15.79;93.27;100148.22;4897834;29;20052;-73
2022/07/20 04:24:12;;;;;;;23.58;10.35;;;;;;;15.79;93.26;100148.22;4883036;29;20040;-73
2022/07/20 04:26:37;;;;;;;21.65;9.27;;;;;;;15.82;93.05;100147.59;4879031;29;20036;-74
2022/07/20 04:29:02;;;;;;;16.58;8.68;;;;;;;15.83;93.47;100149.22;4878197;29;20033;-73
2022/07/20 04:31:28;;;;;;;15.93;8.85;;;;;;;15.88;92.97;100151.84;4856844;29;20041;-74
2022/07/20 04:33:53;;;;;;;17.25;8.75;;;;;;;15.89;93.17;100149.94;4900563;29;20033;-74
2022/07/20 04:36:19;;;;;;;16.92;8.60;;;;;;;15.95;92.87;100159.72;4852243;29;20032;-73
2022/07/20 04:38:44;;;;;;;15.57;8.20;;;;;;;15.97;92.38;100170.44;4880267;29;20087;-74
2022/07/20 04:41:09;;;;;;;16.95;8.23;;;;;;;16.00;92.08;100175.34;4897924;29;20051;-73
2022/07/20 04:43:35;;;;;;;14.63;8.90;;;;;;;16.05;92.06;100187.09;4880166;29;20852;-74
2022/07/20 04:46:00;;;;;;;12.40;7.22;;;;;;;16.07;91.72;100185.97;4884399;29;20036;-74
2022/07/20 04:48:26;;;;;;;14.68;8.68;;;;;;;16.12;91.48;100205.16;4880098;29;20784;-74
2022/07/20 04:50:51;;;;;;;12.45;8.45;;;;;;;16.15;91.21;100210.88;4866973;29;20116;-75
2022/07/20 04:53:16;;;;;;;12.27;7.43;;;;;;;16.14;90.88;100220.28;4880911;29;20040;-73
2022/07/20 04:55:42;;;;;;;12.85;7.82;;;;;;;16.15;90.51;100227.44;4865756;29;20024;-74
2022/07/20 04:58:07;;;;;;;11.00;8.07;;;;;;;16.15;90.55;100243.97;4889241;29;20051;-72
2022/07/20 05:00:36;;;;;;;13.82;8.02;;;;;;;16.09;90.40;100239.72;4859999;29;20052;-73
2022/07/20 05:03:02;;;;;;;13.98;8.55;;;;;;;16.14;90.87;100258.09;4878349;29;20366;-73
2022/07/20 05:05:27;;;;;;;13.65;8.30;;;;;;;16.07;90.93;100255.72;4886295;29;20140;-74
2022/07/20 05:07:52;;;;;;;15.20;8.10;;;;;;;16.09;91.35;100264.53;4896278;29;20481;-75
2022/07/20 05:10:18;;;;;;;13.63;7.93;;;;;;;16.13;91.40;100265.53;4884132;29;20064;-73
2022/07/20 05:12:43;;;;;;;12.80;7.88;;;;;;;16.23;91.03;100268.06;4850667;29;20060;-73
2022/07/20 05:15:09;;;;;;;11.70;7.32;;;;;;;16.34;90.65;100270.63;4871093;29;20049;-74
2022/07/20 05:17:34;;;;;;;12.25;7.78;;;;;;;16.45;90.54;100254.66;4883112;29;20033;-74
2022/07/20 05:20:00;;;;;;;19.75;8.52;;;;;;;16.55;90.02;100269.06;4899905;29;20032;-73
2022/07/20 05:22:25;;;;;;;16.02;7.68;;;;;;;16.68;89.76;100261.88;4876650;29;20017;-72
2022/07/20 05:24:51;;;;;;;15.88;8.73;;;;;;;16.78;88.90;100266.34;4880760;29;20037;-72
2022/07/20 05:27:16;;;;;;;10.07;6.30;;;;;;;16.83;88.74;100257.94;4873616;29;20039;-73
2022/07/20 05:29:41;;;;;;;8.70;6.45;;;;;;;16.97;88.18;100248.78;4866466;29;20059;-74
2022/07/20 05:32:08;;;;;;;11.13;6.85;;;;;;;17.10;87.31;100250.72;4877350;29;20123;-73
2022/07/20 05:34:33;;;;;;;11.93;6.88;;;;;;;17.15;86.76;100256.09;4862566;29;20147;-75
2022/07/20 05:36:59;;;;;;;11.32;7.05;;;;;;;17.25;86.22;100255.84;4864811;29;20084;-76
2022/07/20 05:39:24;;;;;;;15.00;6.22;;;;;;;17.30;85.93;100259.59;4902726;29;20024;-76
2022/07/20 05:41:50;;;;;;;11.98;6.72;;;;;;;17.24;85.97;100251.47;4877536;29;20025;-75
2022/07/20 05:44:15;;;;;;;13.25;6.90;;;;;;;17.18;86.04;100255.47;4883372;29;20037;-75
2022/07/20 05:46:41;;;;;;;12.40;5.90;;;;;;;17.03;86.71;100240.09;4905875;29;20124;-74
2022/07/20 05:49:06;;;;;;;11.70;6.82;;;;;;;17.04;86.83;100257.47;4885110;29;20051;-74
2022/07/20 05:51:34;;;;;;;10.98;5.70;;;;;;;17.08;86.32;100244.66;4882677;29;20396;-73
2022/07/20 05:53:59;;;;;;;11.48;5.65;;;;;;;17.22;86.58;100244.59;4876976;29;20033;-73
2022/07/20 05:56:25;;;;;;;11.07;5.78;;;;;;;17.49;85.88;100251.09;4865577;29;20035;-74
2022/07/20 05:58:50;;;;;;;11.70;5.47;;;;;;;17.73;84.66;100239.69;4880827;29;20097;-72
2022/07/20 06:01:16;;;;;;;7.70;5.15;;;;;;;17.98;84.09;100243.72;4850240;29;20043;-72
2022/07/20 06:03:43;;;;;;;9.60;5.07;;;;;;;18.19;82.52;100245.88;4896309;29;20052;-73
2022/07/20 06:06:09;;;;;;;9.85;5.10;;;;;;;18.27;82.14;100237.59;4898288;29;20037;-73
2022/07/20 06:08:36;;;;;;;6.20;4.43;;;;;;;18.65;81.40;100241.72;4896733;29;20029;-71
2022/07/20 06:11:01;;;;;;;6.28;4.05;;;;;;;19.25;78.77;100247.59;4855954;29;20041;-72
2022/07/20 06:13:27;;;;;;;8.45;4.43;;;;;;;19.42;78.00;100252.25;4881651;29;20043;-74
2022/07/20 06:15:52;;;;;;;7.40;4.05;;;;;;;19.56;77.36;100269.50;4868647;29;20044;-73
2022/07/20 06:18:18;;;;;;;6.78;3.60;;;;;;;19.99;76.46;100278.84;4879711;29;20047;-72
2022/07/20 06:20:43;;;;;;;10.27;4.47;;;;;;;20.32;74.57;100279.00;4878407;29;20069;-71
2022/07/20 06:23:09;;;;;;;5.95;4.28;;;;;;;20.55;73.45;100270.38;4866320;29;20041;-76
2022/07/20 06:25:34;;;;;;;5.13;3.85;;;;;;;20.84;72.41;100285.41;4864214;29;20116;-74
2022/07/20 06:28:00;;;;;;;9.40;4.15;;;;;;;20.98;72.00;100299.81;4861514;29;20037;-73
2022/07/20 06:30:26;;;;;;;6.18;4.05;;;;;;;20.84;71.20;100293.75;4893128;29;20051;-74
2022/07/20 06:32:51;;;;;;;6.78;4.10;;;;;;;20.86;71.28;100302.56;4884116;29;20036;-75
2022/07/20 06:35:17;;;;;;;6.95;3.60;;;;;;;20.86;71.64;100299.78;4879626;29;20079;-72
2022/07/20 06:37:42;;;;;;;8.45;4.65;;;;;;;20.74;70.32;100312.44;4882262;29;20111;-72
2022/07/20 06:40:10;;;;;;;6.57;3.90;;;;;;;20.62;70.80;100315.13;4893929;29;20036;-71
2022/07/20 06:42:35;;;;;;;10.55;4.65;;;;;;;20.49;70.79;100332.84;4882518;29;20107;-74
2022/07/20 06:45:01;;;;;;;10.13;4.40;;;;;;;20.27;71.63;100326.41;4892333;29;20177;-73
2022/07/20 06:47:26;;;;;;;4.15;3.33;;;;;;;20.19;72.03;100324.50;4892622;29;20032;-75
2022/07/20 06:50:21;;;;;;;5.30;4.15;;;;;;;20.08;72.63;100312.13;4882241;29;20115;-76
2022/07/20 06:52:47;;;;;;;7.32;4.30;;;;;;;19.92;72.46;100328.50;4886424;29;20041;-75
2022/07/20 06:55:12;;;;;;;6.10;3.22;;;;;;;19.87;73.42;100318.41;4904063;29;20575;-76
2022/07/20 06:57:38;;;;;;;7.03;4.68;;;;;;;19.91;72.64;100324.13;4900972;29;20044;-73
2022/07/20 07:00:07;;;;;;;10.88;4.00;;;;;;;19.89;72.89;100335.56;4884999;29;20047;-73
2022/07/20 07:02:33;;;;;;;8.73;3.38;;;;;;;19.86;72.72;100344.53;4878084;29;20065;-73
2022/07/20 07:04:59;;;;;;;7.55;3.65;;;;;;;19.84;73.66;100352.38;4884288;29;20032;-74
2022/07/20 07:07:24;;;;;;;9.32;2.95;;;;;;;19.88;73.51;100358.88;4899086;29;20040;-74
2022/07/20 07:09:50;;;;;;;12.10;3.38;;;;;;;19.93;72.77;100367.03;4900461;29;20116;-75
2022/07/20 07:12:15;;;;;;;5.50;3.03;;;;;;;19.97;73.05;100351.34;4880388;29;20080;-75
2022/07/20 07:14:41;;;;;;;8.38;3.83;;;;;;;20.11;71.96;100367.00;4871238;29;20036;-75
2022/07/20 07:17:06;;;;;;;8.38;3.97;;;;;;;20.09;72.39;100360.94;4885455;29;20122;-76
2022/07/20 07:19:32;;;;;;;10.80;3.42;;;;;;;20.04;72.34;100357.19;4857323;29;20445;-75
2022/07/20 07:21:57;;;;;;;5.65;3.33;;;;;;;20.18;72.36;100365.31;4871476;29;20135;-75
2022/07/20 07:24:23;;;;;;;11.05;3.35;;;;;;;20.42;71.14;100360.31;4868463;29;20436;-75
2022/07/20 07:26:48;;;;;;;9.98;3.53;;;;;;;20.55;71.24;100365.63;4881451;29;20041;-74
2022/07/20 07:29:14;;;;;;;5.75;2.92;;;;;;;20.56;71.05;100355.34;4885576;29;20455;-75
2022/07/20 07:31:40;;;;;;;8.75;3.55;;;;;;;20.61;70.18;100363.47;4884710;29;20036;-77
2022/07/20 07:34:05;;;;;;;9.90;3.75;;;;;;;20.46;70.48;100375.16;4898258;29;20052;-75
2022/07/20 07:36:31;;;;;;;7.45;3.38;;;;;;;20.17;71.10;100371.22;4898709;29;20032;-75
2022/07/20 07:38:56;;;;;;;8.55;3.25;;;;;;;20.11;72.35;100378.09;4880097;29;20036;-75
2022/07/20 07:41:22;;;;;;;7.63;3.17;;;;;;;20.19;71.58;100375.28;4867894;29;20076;-75
2022/07/20 07:43:48;;;;;;;16.25;3.22;;;;;;;20.35;71.55;100389.41;4899568;29;20043;-75
2022/07/20 07:46:13;;;;;;;5.78;2.95;;;;;;;20.27;71.74;100381.94;4897980;29;20035;-76
2022/07/20 07:48:39;;;;;;;8.15;2.70;;;;;;;20.29;71.69;100385.19;4878631;29;20365;-76
2022/07/20 07:51:04;;;;;;;4.13;2.58;;;;;;;20.30;71.47;100386.84;4862442;29;20044;-75
2022/07/20 07:53:30;;;;;;;12.20;3.45;;;;;;;20.32;71.64;100378.97;4856996;29;20041;-74
2022/07/20 07:55:55;;;;;;;5.90;2.70;;;;;;;20.78;70.20;100392.34;4881126;29;20040;-73
2022/07/20 07:58:21;;;;;;;6.78;2.70;;;;;;;21.52;67.76;100401.16;4867737;29;20119;-75
2022/07/20 08:00:46;;;;;;;10.10;3.03;;;;;;;21.81;65.55;100402.19;4892810;29;20512;-75
2022/07/20 08:03:12;;;;;;;4.60;2.60;;;;;;;21.82;65.24;100398.28;4883625;29;20028;-74
2022/07/20 08:05:37;;;;;;;8.68;2.40;;;;;;;21.88;65.57;100396.88;4867811;29;20080;-74
2022/07/20 08:08:11;;;;;;;12.13;4.43;;;;;;;22.02;64.48;100408.53;4883606;29;20484;-74
2022/07/20 08:10:38;;;;;;;8.70;3.47;;;;;;;22.15;63.12;100401.00;4880850;29;20063;-75
2022/07/20 08:13:03;;;;;;;7.53;2.80;;;;;;;22.51;62.97;100391.09;4880132;29;20037;-75
2022/07/20 08:15:29;;;;;;;8.65;3.28;;;;;;;22.90;60.95;100401.88;4866243;29;20029;-74
2022/07/20 08:17:55;;;;;;;6.22;3.13;;;;;;;23.15;60.67;100400.69;4850321;29;20032;-75
2022/07/20 08:20:22;;;;;;;10.43;2.60;;;;;;;23.14;59.35;100401.88;4848014;29;20071;-74
2022/07/20 08:22:48;;;;;;;5.47;2.75;;;;;;;22.75;59.94;100407.00;4881648;29;20025;-74
2022/07/20 08:25:14;;;;;;;4.93;2.60;;;;;;;22.63;61.46;100409.78;4865100;29;20105;-75
2022/07/20 08:27:39;;;;;;;9.60;2.78;;;;;;;22.66;61.36;100403.50;4866989;29;20065;-75
2022/07/20 08:30:05;;;;;;;6.03;2.60;;;;;;;22.94;60.31;100403.63;4880290;29;20044;-75
2022/07/20 08:32:31;;;;;;;10.43;3.75;;;;;;;23.03;59.70;100406.28;4877099;29;20045;-73
2022/07/20 08:34:56;;;;;;;7.15;2.90;;;;;;;23.13;59.49;100408.63;4847047;29;20037;-73
2022/07/20 08:37:22;;;;;;;8.35;3.55;;;;;;;23.46;58.18;100399.19;4876217;29;20084;-75
2022/07/20 08:39:47;;;;;;;8.82;3.03;;;;;;;23.66;57.56;100416.13;4861465;29;20116;-74
2022/07/20 08:42:14;;;;;;;8.70;2.90;;;;;;;23.65;57.28;100411.69;4860901;29;20556;-74
2022/07/20 08:44:43;;;;;;;10.40;3.13;;;;;;;23.47;57.41;100414.78;4845930;29;20500;-74
2022/07/20 08:47:12;;;;;;;11.10;3.67;;;;;;;23.20;57.76;100415.56;4889622;29;20036;-74
2022/07/20 08:49:44;;;;;;;7.13;2.67;;;;;;;23.03;58.83;100411.84;4876455;29;20091;-75
2022/07/20 08:52:10;;;;;;;10.80;3.20;;;;;;;22.96;58.26;100425.56;4862336;29;20555;-73
2022/07/20 08:54:37;;;;;;;4.07;2.55;;;;;;;22.91;58.42;100425.78;4847759;29;20040;-74
2022/07/20 08:57:15;;;;;;;5.93;3.22;;;;;;;22.90;58.25;100424.19;4878906;29;20033;-76
2022/07/20 08:59:41;;;;;;;7.53;3.05;;;;;;;22.71;58.50;100417.22;4865099;29;20041;-76
2022/07/20 09:02:08;;;;;;;5.85;2.65;;;;;;;22.57;59.14;100416.75;4863044;29;20029;-74
2022/07/20 09:05:07;;;;;;;12.20;3.80;;;;;;;22.37;59.51;100424.03;4863908;29;20113;-74
2022/07/20 09:07:40;;;;;;;8.77;3.38;;;;;;;22.28;59.63;100415.75;4841777;29;20065;-73
2022/07/20 09:10:11;;;;;;;7.40;3.40;;;;;;;22.53;58.80;100418.59;4865007;29;20036;-74
2022/07/20 09:12:51;;;;;;;4.43;2.90;;;;;;;22.90;58.21;100429.78;4898246;29;20029;-74
2022/07/20 09:15:27;;;;;;;6.63;3.08;;;;;;;23.24;57.75;100422.06;4897338;29;20036;-72
2022/07/20 09:18:08;;;;;;;14.52;3.15;;;;;;;23.59;56.31;100427.09;4877653;29;20024;-76
2022/07/20 09:20:36;;;;;;;6.53;2.97;;;;;;;23.87;56.81;100427.94;4893369;29;20503;-74
2022/07/20 09:23:07;;;;;;;10.38;2.72;;;;;;;24.00;55.67;100425.06;4865166;29;20037;-75
2022/07/20 09:25:33;;;;;;;7.72;3.10;;;;;;;23.77;55.67;100434.00;4895446;29;20028;-75
2022/07/20 09:27:59;;;;;;;8.32;3.40;;;;;;;23.42;56.71;100433.75;4898398;29;20024;-75
2022/07/20 09:30:25;;;;;;;10.60;3.72;;;;;;;23.18;57.98;100433.47;4875341;29;20485;-75
2022/07/20 09:32:55;;;;;;;8.75;2.85;;;;;;;22.81;59.02;100427.91;4898204;29;20124;-74
2022/07/20 09:35:23;;;;;;;11.57;3.30;;;;;;;22.71;58.88;100431.16;4900627;29;20043;-73
2022/07/20 09:37:48;;;;;;;7.63;3.28;;;;;;;22.71;59.71;100433.94;4900551;29;20032;-74
2022/07/20 09:40:14;;;;;;;8.73;3.13;;;;;;;22.82;58.96;100428.72;4881110;29;20037;-75
2022/07/20 09:42:41;;;;;;;8.60;2.72;;;;;;;22.99;57.70;100439.63;4886135;29;20036;-74
2022/07/20 09:45:19;;;;;;;7.38;3.40;;;;;;;23.19;57.29;100437.06;4899447;29;20099;-73
2022/07/20 09:48:08;;;;;;;9.27;2.97;;;;;;;23.25;57.24;100429.28;4887622;29;20033;-73
2022/07/20 09:50:41;;;;;;;5.63;3.05;;;;;;;23.36;56.87;100441.56;4901291;29;20025;-73
2022/07/20 09:53:08;;;;;;;8.48;3.47;;;;;;;23.44;56.89;100446.19;4888396;29;20052;-74
2022/07/20 09:55:35;;;;;;;7.25;3.38;;;;;;;23.13;57.08;100444.88;4888585;29;20016;-74
2022/07/20 09:58:02;;;;;;;9.50;3.38;;;;;;;22.87;57.70;100450.78;4891366;29;20479;-73
2022/07/20 10:00:28;;;;;;;8.48;3.10;;;;;;;22.70;58.62;100454.59;4870732;29;20734;-74
2022/07/20 10:02:56;;;;;;;6.00;3.08;;;;;;;22.58;59.42;100455.41;4886757;29;20060;-74
2022/07/20 10:05:23;;;;;;;5.93;2.88;;;;;;;22.46;59.62;100447.84;4904258;29;20033;-75
2022/07/20 10:07:49;;;;;;;7.32;3.38;;;;;;;22.41;59.64;100453.66;4880366;29;20029;-75
2022/07/20 10:10:15;;;;;;;8.85;3.08;;;;;;;22.24;59.95;100445.44;4896200;29;20073;-74
2022/07/20 10:12:41;;;;;;;9.73;3.63;;;;;;;22.22;60.54;100439.44;4903879;29;20147;-74
2022/07/20 10:15:10;;;;;;;10.15;3.40;;;;;;;22.35;59.89;100449.47;4883546;29;20591;-73
2022/07/20 10:17:38;;;;;;;9.43;3.60;;;;;;;22.53;59.03;100443.69;4900316;29;20033;-75
2022/07/20 10:20:07;;;;;;;7.60;3.33;;;;;;;22.75;58.85;100457.19;4887346;29;20024;-74
2022/07/20 10:22:33;;;;;;;5.72;3.45;;;;;;;22.92;58.38;100458.91;4882093;29;20044;-73
2022/07/20 10:25:17;;;;;;;7.28;3.25;;;;;;;23.03;56.86;100459.25;4903349;29;20055;-74
2022/07/20 10:27:43;;;;;;;7.80;3.72;;;;;;;23.24;56.43;100452.75;4902020;29;20124;-73
2022/07/20 10:30:19;;;;;;;6.32;3.25;;;;;;;23.36;56.60;100458.28;4871357;29;20090;-73
2022/07/20 10:32:57;;;;;;;7.75;4.28;;;;;;;23.22;56.28;100447.53;4898297;29;20441;-75
2022/07/20 10:35:26;;;;;;;7.07;3.58;;;;;;;23.01;56.57;100454.03;4892875;29;20032;-74
2022/07/20 10:37:52;;;;;;;8.23;4.10;;;;;;;22.90;58.00;100479.94;4900189;29;20041;-74
2022/07/20 10:40:25;;;;;;;8.07;3.30;;;;;;;22.68;58.76;100462.53;4884194;29;20125;-73
2022/07/20 10:42:51;;;;;;;8.75;3.28;;;;;;;22.60;59.21;100460.66;4873670;29;20036;-74
2022/07/20 10:45:16;;;;;;;8.60;2.90;;;;;;;22.61;59.64;100457.50;4885392;29;20076;-73
2022/07/20 10:47:48;;;;;;;8.40;3.47;;;;;;;22.66;60.72;100454.50;4884145;29;20063;-74
2022/07/20 10:50:27;;;;;;;7.40;2.78;;;;;;;22.77;59.68;100459.63;4895820;29;20028;-73
2022/07/20 10:53:17;;;;;;;9.13;3.30;;;;;;;22.70;60.39;100460.19;4898742;29;20036;-73
2022/07/20 10:55:59;;;;;;;9.10;3.08;;;;;;;22.59;60.89;100461.78;4878045;29;20130;-75
2022/07/20 10:58:31;;;;;;;6.03;2.60;;;;;;;22.43;60.88;100473.63;4895290;29;20024;-74
2022/07/20 11:01:02;;;;;;;11.05;3.08;;;;;;;22.21;61.39;100466.47;4898180;29;20032;-74
2022/07/20 11:03:37;;;;;;;4.35;2.25;;;;;;;22.10;62.07;100471.66;4883650;29;20029;-75
2022/07/20 11:06:13;;;;;;;11.70;3.38;;;;;;;22.07;62.21;100483.47;4874209;29;20037;-75
2022/07/20 11:08:48;;;;;;;10.02;2.95;;;;;;;22.00;62.77;100486.00;4896422;29;20059;-73
2022/07/20 11:11:18;;;;;;;9.13;3.42;;;;;;;22.01;62.92;100473.72;4883486;29;20554;-74
2022/07/20 11:13:46;;;;;;;6.82;2.63;;;;;;;22.24;62.23;100478.88;4901849;29;20088;-74
2022/07/20 11:16:12;;;;;;;11.73;2.75;;;;;;;22.54;61.18;100467.59;4883652;29;20039;-74
2022/07/20 11:18:38;;;;;;;9.65;2.58;;;;;;;22.82;60.62;100474.13;4877050;29;20025;-74
2022/07/20 11:21:08;;;;;;;8.40;2.95;;;;;;;22.88;59.96;100474.72;4884453;29;20067;-74